Time;durP1;ratioP1;P1;durP2;ratioP2;P2;SDS_P1;SDS_P2;PMS_P1;PMS_P2;Temp;Humidity;BMP_temperature;BMP_pressure;BME280_temperature;BME280_humidity;BME280_pressure;Samples;Min_cycle;Max_cycle;Signal;HPM_P1;HPM_P2
2022/11/05 00:10:23;;;;;;;7.15;1.88;;;7.40;99.90;;;;;;7402367;19;19929;-87
2022/11/05 00:18:19;;;;;;;8.85;1.55;;;7.30;99.90;;;;;;7400685;19;20241;-87
2022/11/05 00:20:48;;;;;;;7.95;1.40;;;7.40;99.90;;;;;;7405756;19;19915;-87
2022/11/05 00:26:00;;;;;;;10.75;2.15;;;7.50;99.90;;;;;;7406321;19;19949;-88
2022/11/05 00:28:32;;;;;;;17.42;4.32;;;7.50;99.90;;;;;;7404741;19;20007;-87
2022/11/05 00:31:08;;;;;;;10.38;3.38;;;7.50;99.90;;;;;;7402339;19;19993;-87
2022/11/05 00:33:37;;;;;;;12.85;4.45;;;7.40;99.90;;;;;;7405930;19;19922;-87
2022/11/05 00:36:08;;;;;;;12.98;3.53;;;7.40;99.90;;;;;;7405298;19;19922;-88
2022/11/05 00:38:37;;;;;;;9.32;3.42;;;7.40;99.90;;;;;;7406120;19;19989;-87
2022/11/05 00:41:06;;;;;;;10.27;4.20;;;7.50;99.90;;;;;;7406468;19;20344;-87
2022/11/05 00:46:19;;;;;;;12.02;5.60;;;7.40;99.90;;;;;;7403919;19;19929;-86
2022/11/05 00:51:29;;;;;;;15.02;7.05;;;7.30;99.90;;;;;;7404646;19;19919;-87
2022/11/05 00:53:58;;;;;;;13.02;7.30;;;7.20;99.90;;;;;;7405918;19;20022;-86
2022/11/05 00:56:27;;;;;;;19.02;8.50;;;7.20;99.90;;;;;;7405571;19;19986;-86
2022/11/05 00:59:00;;;;;;;18.25;8.57;;;7.20;99.90;;;;;;7404330;19;19918;-86
2022/11/05 01:01:29;;;;;;;16.55;7.88;;;7.10;99.90;;;;;;7404072;19;19918;-87
2022/11/05 01:03:58;;;;;;;15.57;6.57;;;7.10;99.90;;;;;;7395364;19;19943;-87
2022/11/05 01:06:26;;;;;;;20.73;9.00;;;7.20;99.90;;;;;;7406859;19;19938;-87
2022/11/05 01:08:57;;;;;;;17.73;7.38;;;7.10;99.90;;;;;;7404623;19;19942;-87
2022/11/05 01:11:35;;;;;;;16.90;8.57;;;7.10;99.90;;;;;;7406257;19;19922;-86
2022/11/05 01:14:09;;;;;;;14.88;7.68;;;7.10;99.90;;;;;;7402821;19;20022;-87
2022/11/05 01:16:40;;;;;;;16.95;6.50;;;7.00;99.90;;;;;;7404838;19;20028;-88
2022/11/05 01:19:10;;;;;;;21.40;9.32;;;7.00;99.90;;;;;;7398381;19;19926;-87
2022/11/05 01:21:40;;;;;;;19.83;8.82;;;7.00;99.90;;;;;;7404640;19;22183;-86
2022/11/05 01:24:12;;;;;;;29.67;16.10;;;7.00;99.90;;;;;;7402842;19;19966;-86
2022/11/05 01:26:41;;;;;;;26.17;11.60;;;7.00;99.90;;;;;;7406945;19;19914;-86
2022/11/05 01:29:16;;;;;;;24.40;11.13;;;6.90;99.90;;;;;;7403756;19;19925;-87
2022/11/05 01:31:45;;;;;;;11.63;4.25;;;6.90;99.90;;;;;;7406817;19;19911;-87
2022/11/05 01:34:14;;;;;;;10.70;3.90;;;6.90;99.90;;;;;;7402429;19;19911;-87
2022/11/05 01:36:43;;;;;;;7.97;2.38;;;7.00;99.90;;;;;;7404200;19;19917;-86
2022/11/05 01:39:11;;;;;;;5.18;2.38;;;7.10;99.90;;;;;;7401078;19;19944;-86
2022/11/05 01:41:40;;;;;;;8.07;1.20;;;7.10;99.90;;;;;;7395771;19;19930;-86
2022/11/05 01:44:39;;;;;;;7.43;1.38;;;7.10;99.90;;;;;;7400369;19;20344;-87
2022/11/05 01:47:19;;;;;;;6.07;2.22;;;7.10;99.90;;;;;;7406501;19;19926;-86
2022/11/05 01:49:48;;;;;;;7.80;1.70;;;7.20;99.90;;;;;;7407936;19;19918;-87
2022/11/05 01:52:17;;;;;;;5.22;1.00;;;7.20;99.90;;;;;;7409164;19;19924;-87
2022/11/05 01:54:48;;;;;;;3.75;1.00;;;7.10;99.90;;;;;;7411307;19;20320;-87
2022/11/05 01:57:17;;;;;;;5.53;1.40;;;7.10;99.90;;;;;;7403747;19;19926;-87
2022/11/05 01:59:52;;;;;;;4.82;1.25;;;7.10;99.90;;;;;;7412991;19;19940;-87
2022/11/05 02:02:24;;;;;;;5.72;1.65;;;7.10;99.90;;;;;;7410898;19;19925;-87
2022/11/05 02:04:56;;;;;;;7.07;1.15;;;7.00;99.90;;;;;;7411549;19;19914;-86
2022/11/05 02:07:28;;;;;;;4.38;1.25;;;7.00;99.90;;;;;;7407787;19;20486;-86
2022/11/05 02:10:02;;;;;;;6.38;1.70;;;6.90;99.90;;;;;;7402749;19;19937;-87
2022/11/05 02:12:32;;;;;;;9.63;1.20;;;7.00;99.90;;;;;;7410687;19;19918;-86
2022/11/05 02:15:01;;;;;;;4.50;0.82;;;7.00;99.90;;;;;;7401125;19;20321;-86
2022/11/05 02:17:44;;;;;;;6.78;2.10;;;7.00;99.90;;;;;;7409739;19;19942;-87
2022/11/05 02:20:37;;;;;;;9.30;1.25;;;7.00;99.90;;;;;;7407232;19;19922;-87
2022/11/05 02:23:58;;;;;;;7.78;1.80;;;7.00;99.90;;;;;;7410162;19;19928;-87
2022/11/05 02:26:43;;;;;;;8.80;1.90;;;7.10;99.90;;;;;;7408584;19;19922;-87
2022/11/05 02:29:55;;;;;;;5.95;0.90;;;7.10;99.90;;;;;;7407418;19;20286;-87
2022/11/05 02:32:37;;;;;;;8.32;1.50;;;7.00;99.90;;;;;;7401450;19;19918;-86
2022/11/05 02:35:21;;;;;;;7.15;1.58;;;6.90;99.90;;;;;;7410656;19;19918;-87
2022/11/05 02:37:54;;;;;;;7.57;1.25;;;6.80;99.90;;;;;;7407802;19;19918;-87
2022/11/05 02:40:30;;;;;;;7.75;1.00;;;6.80;99.90;;;;;;7407651;19;20252;-85
2022/11/05 02:43:07;;;;;;;5.82;1.20;;;6.80;99.90;;;;;;7408840;19;20288;-86
2022/11/05 02:45:43;;;;;;;6.55;0.93;;;6.70;99.90;;;;;;7408030;19;19947;-86
2022/11/05 02:48:23;;;;;;;5.18;1.08;;;6.60;99.90;;;;;;7400661;19;19915;-88
2022/11/05 02:51:00;;;;;;;5.63;1.35;;;6.60;99.90;;;;;;7408753;19;19918;-87
2022/11/05 02:53:38;;;;;;;5.25;1.88;;;6.60;99.90;;;;;;7408133;19;20366;-86
2022/11/05 02:56:11;;;;;;;9.95;1.13;;;6.50;99.90;;;;;;7409525;19;20422;-87
2022/11/05 02:58:40;;;;;;;7.05;0.80;;;6.50;99.90;;;;;;7407574;19;19974;-86
2022/11/05 03:01:13;;;;;;;3.58;0.95;;;6.40;99.90;;;;;;7408749;19;20259;-86
2022/11/05 03:03:47;;;;;;;4.50;1.15;;;6.40;99.90;;;;;;7407725;19;19927;-86
2022/11/05 03:06:44;;;;;;;6.22;1.30;;;6.30;99.90;;;;;;7406207;19;19933;-86
2022/11/05 03:09:57;;;;;;;4.82;1.20;;;6.40;99.90;;;;;;7405997;19;20377;-86
2022/11/05 03:12:35;;;;;;;3.72;1.00;;;6.40;99.90;;;;;;7407317;19;19919;-86
2022/11/05 03:15:17;;;;;;;4.72;1.00;;;6.40;99.90;;;;;;7406362;19;19927;-86
2022/11/05 03:17:59;;;;;;;5.70;0.65;;;6.40;99.90;;;;;;7408929;19;19930;-86
2022/11/05 03:20:35;;;;;;;4.68;1.15;;;6.40;99.90;;;;;;7409106;19;19930;-86
2022/11/05 03:23:11;;;;;;;3.47;1.10;;;6.40;99.90;;;;;;7406401;19;20328;-86
2022/11/05 03:25:45;;;;;;;5.57;1.05;;;6.40;99.90;;;;;;7408782;19;19922;-86
2022/11/05 03:28:16;;;;;;;4.80;1.20;;;6.50;99.90;;;;;;7409685;19;19918;-86
2022/11/05 03:30:47;;;;;;;4.93;0.65;;;6.50;99.90;;;;;;7400712;19;20394;-86
2022/11/05 03:33:22;;;;;;;5.75;1.55;;;6.50;99.90;;;;;;7405031;19;19911;-86
2022/11/05 03:35:57;;;;;;;3.67;0.68;;;6.50;99.90;;;;;;7410932;19;19915;-86
2022/11/05 03:38:29;;;;;;;4.35;0.65;;;6.40;99.90;;;;;;7406997;19;19923;-86
2022/11/05 03:41:04;;;;;;;4.18;0.70;;;6.40;99.90;;;;;;7407345;19;19941;-86
2022/11/05 03:43:38;;;;;;;5.43;0.82;;;6.40;99.90;;;;;;7407915;19;20272;-86
2022/11/05 03:46:11;;;;;;;5.18;1.10;;;6.40;99.90;;;;;;7408744;19;19932;-86
2022/11/05 03:48:43;;;;;;;5.05;1.67;;;6.40;99.90;;;;;;7396414;19;19925;-87
2022/11/05 03:51:20;;;;;;;4.50;1.02;;;6.40;99.90;;;;;;7404805;19;20291;-86
2022/11/05 03:53:54;;;;;;;5.40;1.10;;;6.40;99.90;;;;;;7404575;19;20666;-87
2022/11/05 03:56:28;;;;;;;3.47;0.93;;;6.40;99.90;;;;;;7402657;19;19929;-86
2022/11/05 03:58:59;;;;;;;4.32;1.08;;;6.40;99.90;;;;;;7405217;19;19914;-86
2022/11/05 04:01:27;;;;;;;;;;;6.40;99.90;;;;;;7406765;19;19923;-86
2022/11/05 04:03:56;;;;;;;4.75;0.80;;;6.40;99.90;;;;;;7399456;19;20430;-86
2022/11/05 04:14:44;;;;;;;3.63;1.45;;;6.40;99.90;;;;;;7405988;19;19925;-86
2022/11/05 04:17:11;;;;;;;5.93;1.60;;;6.40;99.90;;;;;;7406416;19;20343;-86
2022/11/05 04:25:06;;;;;;;3.78;1.15;;;6.50;99.90;;;;;;7404636;19;19921;-86
2022/11/05 04:27:36;;;;;;;2.67;0.77;;;6.50;99.90;;;;;;7407289;19;19932;-86
2022/11/05 04:30:18;;;;;;;;;;;6.40;99.90;;;;;;7409490;19;19917;-85
2022/11/05 04:33:05;;;;;;;6.93;0.93;;;6.40;99.90;;;;;;7407760;19;20354;-86
2022/11/05 04:35:37;;;;;;;6.78;1.45;;;6.40;99.90;;;;;;7405439;19;19918;-86
2022/11/05 04:38:11;;;;;;;3.22;1.35;;;6.30;99.90;;;;;;7403524;19;20348;-86
2022/11/05 04:40:40;;;;;;;8.68;1.35;;;6.30;99.90;;;;;;7407804;19;19925;-87
2022/11/05 04:43:10;;;;;;;5.10;1.20;;;6.30;99.90;;;;;;7398549;19;19922;-86
2022/11/05 04:45:39;;;;;;;6.35;1.73;;;6.30;99.90;;;;;;7407951;19;19923;-86
2022/11/05 04:48:07;;;;;;;4.15;0.70;;;6.20;99.90;;;;;;7404931;19;19945;-86
2022/11/05 04:50:37;;;;;;;6.93;1.38;;;6.30;99.90;;;;;;7403453;19;20370;-86
2022/11/05 04:53:08;;;;;;;2.45;1.02;;;6.30;99.90;;;;;;7408005;19;19930;-86
2022/11/05 04:55:37;;;;;;;3.70;1.55;;;6.40;99.90;;;;;;7404168;19;20348;-86
2022/11/05 04:58:06;;;;;;;5.70;1.27;;;6.40;99.90;;;;;;7405320;19;19925;-86
2022/11/05 05:00:35;;;;;;;5.43;2.35;;;6.40;99.90;;;;;;7401333;19;19926;-86
2022/11/05 05:03:04;;;;;;;4.18;0.82;;;6.40;99.90;;;;;;7404941;19;20253;-86
2022/11/05 05:05:33;;;;;;;4.35;1.50;;;6.40;99.90;;;;;;7402515;19;19929;-85
2022/11/05 05:08:03;;;;;;;4.53;1.48;;;6.40;99.90;;;;;;7402346;19;20354;-86
2022/11/05 05:10:35;;;;;;;6.68;1.33;;;6.50;99.90;;;;;;7402999;19;19918;-86
2022/11/05 05:13:03;;;;;;;3.17;1.13;;;6.50;99.90;;;;;;7406732;19;19930;-86
2022/11/05 05:15:32;;;;;;;2.92;0.98;;;6.50;99.90;;;;;;7399219;19;19926;-85
2022/11/05 05:18:01;;;;;;;3.10;0.60;;;6.60;99.90;;;;;;7404513;19;20350;-86
2022/11/05 05:23:12;;;;;;;6.00;1.70;;;6.80;99.90;;;;;;7412744;19;20350;-85
2022/11/05 05:25:43;;;;;;;3.00;0.75;;;7.00;99.90;;;;;;7410836;19;20285;-85
2022/11/05 05:28:12;;;;;;;9.00;1.52;;;7.00;99.90;;;;;;7411605;19;20340;-85
2022/11/05 05:30:42;;;;;;;3.20;0.68;;;7.00;99.90;;;;;;7412921;19;20247;-86
2022/11/05 05:33:11;;;;;;;3.88;1.45;;;7.00;99.90;;;;;;7404727;19;19945;-86
2022/11/05 05:35:40;;;;;;;2.97;0.90;;;7.00;99.90;;;;;;7411393;19;19927;-86
2022/11/05 05:38:08;;;;;;;6.53;1.75;;;7.00;99.90;;;;;;7411610;19;19925;-87
2022/11/05 05:40:37;;;;;;;5.85;0.93;;;7.00;99.90;;;;;;7409976;19;19919;-86
2022/11/05 05:43:09;;;;;;;6.85;1.98;;;6.90;99.90;;;;;;7409190;19;19929;-86
2022/11/05 05:45:38;;;;;;;10.38;1.77;;;6.90;99.90;;;;;;7410713;19;19985;-86
2022/11/05 05:48:07;;;;;;;5.70;1.45;;;6.80;99.90;;;;;;7408780;19;19921;-85
2022/11/05 05:50:37;;;;;;;3.13;1.73;;;6.90;99.90;;;;;;7401951;19;19926;-86
2022/11/05 05:53:05;;;;;;;5.35;1.48;;;7.00;99.90;;;;;;7412308;19;19929;-87
2022/11/05 05:55:34;;;;;;;4.63;2.00;;;7.10;99.90;;;;;;7408610;19;19915;-88
2022/11/05 05:58:03;;;;;;;7.28;2.28;;;7.00;99.90;;;;;;7411345;19;19929;-86
2022/11/05 06:00:35;;;;;;;4.65;1.58;;;7.10;99.90;;;;;;7410152;19;19990;-86
2022/11/05 06:03:05;;;;;;;5.32;1.73;;;7.00;99.90;;;;;;7409832;19;19933;-85
2022/11/05 06:05:34;;;;;;;6.65;1.90;;;7.00;99.90;;;;;;7409298;19;19933;-86
2022/11/05 06:08:03;;;;;;;4.65;1.80;;;7.00;99.90;;;;;;7401085;19;19918;-86
2022/11/05 06:10:31;;;;;;;8.07;1.85;;;7.00;99.90;;;;;;7405862;19;19918;-86
2022/11/05 06:13:01;;;;;;;4.35;1.23;;;7.00;99.90;;;;;;7409237;19;19918;-87
2022/11/05 06:15:30;;;;;;;4.00;1.92;;;7.10;99.90;;;;;;7411548;19;21042;-86
2022/11/05 06:18:02;;;;;;;5.68;1.48;;;7.00;99.90;;;;;;7409404;19;19943;-85
2022/11/05 06:20:31;;;;;;;4.00;1.10;;;7.00;99.90;;;;;;7409882;19;19937;-87
2022/11/05 06:22:59;;;;;;;3.50;1.02;;;7.00;99.90;;;;;;7411523;19;20348;-86
2022/11/05 06:25:28;;;;;;;5.50;1.95;;;7.00;99.90;;;;;;7401583;19;19945;-86
2022/11/05 06:27:57;;;;;;;4.45;1.70;;;6.90;99.90;;;;;;7408657;19;19918;-86
2022/11/05 06:30:26;;;;;;;5.25;1.52;;;6.90;99.90;;;;;;7406281;19;19918;-86
2022/11/05 06:32:56;;;;;;;4.82;1.52;;;6.80;99.90;;;;;;7410616;19;20407;-87
2022/11/05 06:35:27;;;;;;;7.40;2.20;;;6.80;99.90;;;;;;7410323;19;19922;-86
2022/11/05 06:38:01;;;;;;;5.40;1.63;;;6.70;99.90;;;;;;7411687;19;19921;-86
2022/11/05 06:40:30;;;;;;;5.85;2.00;;;6.70;99.90;;;;;;7412468;19;19970;-87
2022/11/05 06:42:59;;;;;;;4.97;1.63;;;6.70;99.90;;;;;;7406368;19;19918;-86
2022/11/05 06:45:28;;;;;;;4.88;2.00;;;6.70;99.90;;;;;;7409357;19;20014;-86
2022/11/05 06:47:58;;;;;;;4.35;1.92;;;6.60;99.90;;;;;;7407871;19;20308;-86
2022/11/05 06:50:29;;;;;;;;;;;6.50;99.90;;;;;;7410845;19;19946;-86
2022/11/05 06:53:00;;;;;;;4.28;1.75;;;6.50;99.90;;;;;;7408441;19;19914;-87
2022/11/05 06:55:30;;;;;;;6.57;2.05;;;6.50;99.90;;;;;;7408414;19;19946;-87
2022/11/05 06:57:59;;;;;;;8.70;2.05;;;6.40;99.90;;;;;;7405700;19;19934;-87
2022/11/05 07:00:28;;;;;;;6.60;1.67;;;6.40;99.90;;;;;;7407914;19;19914;-86
2022/11/05 07:02:57;;;;;;;5.43;2.15;;;6.40;99.90;;;;;;7409281;19;19914;-87
2022/11/05 07:05:30;;;;;;;5.53;2.03;;;6.40;99.90;;;;;;7409950;19;19914;-86
2022/11/05 07:07:59;;;;;;;4.72;1.75;;;6.40;99.90;;;;;;7405980;19;19918;-86
2022/11/05 07:10:28;;;;;;;5.30;1.48;;;6.30;99.90;;;;;;7408334;19;19922;-87
2022/11/05 07:12:57;;;;;;;2.60;1.25;;;6.30;99.90;;;;;;7400460;19;19919;-86
2022/11/05 07:15:25;;;;;;;6.05;2.47;;;6.50;99.90;;;;;;7404820;19;19926;-87
2022/11/05 07:18:00;;;;;;;7.32;2.17;;;6.50;99.90;;;;;;7410565;19;19970;-87
2022/11/05 07:20:31;;;;;;;4.22;2.13;;;6.60;99.90;;;;;;7409416;19;20360;-87
2022/11/05 07:23:04;;;;;;;5.90;1.95;;;6.60;99.90;;;;;;7407734;19;19922;-87
2022/11/05 07:25:34;;;;;;;3.95;1.63;;;6.60;99.90;;;;;;7410221;19;19927;-86
2022/11/05 07:28:04;;;;;;;7.38;2.53;;;6.70;99.90;;;;;;7406944;19;19919;-86
2022/11/05 07:30:33;;;;;;;4.50;1.83;;;7.00;99.90;;;;;;7397988;19;20347;-86
2022/11/05 07:33:03;;;;;;;5.32;2.38;;;7.80;99.90;;;;;;7408581;19;20352;-86
2022/11/05 07:35:35;;;;;;;6.82;2.80;;;8.70;99.90;;;;;;7408452;19;19923;-86
2022/11/05 07:38:04;;;;;;;4.40;2.08;;;9.00;99.90;;;;;;7407824;19;19921;-88
2022/11/05 07:40:33;;;;;;;7.22;2.80;;;8.60;99.90;;;;;;7405939;19;19925;-87
2022/11/05 07:43:03;;;;;;;5.35;2.60;;;8.10;99.90;;;;;;7407995;19;19974;-86
2022/11/05 07:45:32;;;;;;;;;;;7.70;99.90;;;;;;7407995;19;19919;-86
2022/11/05 07:48:03;;;;;;;5.03;1.65;;;7.40;99.90;;;;;;7401682;19;19926;-86
2022/11/05 07:50:36;;;;;;;4.95;1.60;;;7.20;99.90;;;;;;7405207;19;19915;-87
2022/11/05 07:53:06;;;;;;;7.25;1.98;;;7.10;99.90;;;;;;7407086;19;19929;-86
2022/11/05 07:55:36;;;;;;;5.03;2.30;;;7.00;99.90;;;;;;7402606;19;19922;-81
2022/11/05 07:58:05;;;;;;;6.80;2.38;;;6.90;99.90;;;;;;7408893;19;19934;-86
2022/11/05 08:00:35;;;;;;;5.90;2.65;;;6.80;99.90;;;;;;7399990;19;19911;-86
2022/11/05 08:03:06;;;;;;;5.72;2.38;;;6.90;99.90;;;;;;7404876;19;20340;-83
2022/11/05 08:05:40;;;;;;;5.78;2.78;;;7.00;99.90;;;;;;7402768;19;19911;-85
2022/11/05 08:08:10;;;;;;;6.10;2.20;;;7.00;99.90;;;;;;7407457;19;19919;-85
2022/11/05 08:10:39;;;;;;;9.00;2.97;;;7.10;99.90;;;;;;7406166;19;20359;-86
2022/11/05 08:13:09;;;;;;;6.07;2.30;;;7.20;99.90;;;;;;7407828;19;19925;-85
2022/11/05 08:15:38;;;;;;;3.78;1.63;;;7.30;99.90;;;;;;7405598;19;19978;-85
2022/11/05 08:18:09;;;;;;;8.40;2.45;;;7.40;99.90;;;;;;7406425;19;19957;-85
2022/11/05 08:20:41;;;;;;;6.15;2.88;;;7.50;99.90;;;;;;7405616;19;20360;-86
2022/11/05 08:23:10;;;;;;;5.18;2.22;;;7.50;99.90;;;;;;7407422;19;19930;-85
2022/11/05 08:25:39;;;;;;;11.18;2.80;;;7.60;99.90;;;;;;7405121;19;19918;-85
2022/11/05 08:28:11;;;;;;;4.57;1.38;;;7.70;99.90;;;;;;7404142;19;19928;-84
2022/11/05 08:30:40;;;;;;;4.20;1.70;;;7.80;99.90;;;;;;7406970;19;19922;-85
2022/11/05 08:33:12;;;;;;;5.85;2.13;;;7.90;99.90;;;;;;7403467;19;19915;-85
2022/11/05 08:35:43;;;;;;;5.60;1.42;;;7.90;99.90;;;;;;7403348;19;20383;-85
2022/11/05 08:38:15;;;;;;;4.10;1.85;;;8.00;99.90;;;;;;7406855;19;19922;-85
2022/11/05 08:40:44;;;;;;;3.97;1.23;;;8.00;99.90;;;;;;7406730;19;19937;-86
2022/11/05 08:43:15;;;;;;;3.92;2.08;;;8.10;99.90;;;;;;7405589;19;19949;-85
2022/11/05 08:45:44;;;;;;;6.18;2.25;;;8.20;99.90;;;;;;7407189;19;19914;-86
2022/11/05 08:48:14;;;;;;;7.03;2.45;;;8.20;99.90;;;;;;7405370;19;19915;-85
2022/11/05 08:50:47;;;;;;;4.35;1.83;;;8.30;99.90;;;;;;7404671;19;19930;-86
2022/11/05 08:53:17;;;;;;;3.08;1.25;;;8.30;99.90;;;;;;7404882;19;19923;-85
2022/11/05 08:55:48;;;;;;;6.32;1.90;;;8.40;99.90;;;;;;7404339;19;19921;-85
2022/11/05 08:58:19;;;;;;;5.70;1.65;;;8.50;99.90;;;;;;7406242;19;19990;-86
2022/11/05 09:00:51;;;;;;;4.18;0.93;;;8.60;99.90;;;;;;7403257;19;19931;-84
2022/11/05 09:03:20;;;;;;;2.50;1.08;;;8.80;99.90;;;;;;7402904;19;20282;-85
2022/11/05 09:05:54;;;;;;;4.65;2.05;;;9.00;99.90;;;;;;7399665;19;19915;-85
2022/11/05 09:08:23;;;;;;;6.78;1.58;;;9.20;99.90;;;;;;7399782;19;19961;-85
2022/11/05 09:10:55;;;;;;;3.85;1.60;;;9.40;99.90;;;;;;7403632;19;19914;-85
2022/11/05 09:13:24;;;;;;;16.23;2.15;;;9.60;99.90;;;;;;7402556;19;19930;-86
2022/11/05 09:15:53;;;;;;;5.38;1.05;;;9.70;99.90;;;;;;7403797;19;19978;-86
2022/11/05 09:18:24;;;;;;;2.97;0.98;;;9.70;99.90;;;;;;7404986;19;19918;-85
2022/11/05 09:20:56;;;;;;;5.10;1.10;;;9.90;99.90;;;;;;7404781;19;20268;-85
2022/11/05 09:23:25;;;;;;;6.53;1.50;;;10.00;99.90;;;;;;7403978;19;19914;-86
2022/11/05 09:25:54;;;;;;;6.65;1.92;;;10.20;99.90;;;;;;7405157;19;19926;-86
2022/11/05 09:28:24;;;;;;;5.38;1.00;;;10.20;99.90;;;;;;7404348;19;19918;-86
2022/11/05 09:30:54;;;;;;;5.05;1.20;;;10.30;99.90;;;;;;7399959;19;19929;-86
2022/11/05 09:33:26;;;;;;;7.70;2.10;;;10.40;99.90;;;;;;7404442;19;19915;-85
2022/11/05 09:36:01;;;;;;;298.10;29.90;;;10.60;99.90;;;;;;7402622;19;19931;-89
2022/11/05 09:38:30;;;;;;;15.23;4.05;;;10.70;99.90;;;;;;7403072;19;19922;-91
2022/11/05 09:41:03;;;;;;;20.40;4.00;;;10.80;99.90;;;;;;7404107;19;20255;-88
2022/11/05 09:43:36;;;;;;;94.20;11.70;;;11.00;99.90;;;;;;7406881;19;19915;-91
2022/11/05 09:46:12;;;;;;;13.50;3.58;;;11.30;99.90;;;;;;7403022;19;20354;-87
2022/11/05 09:48:43;;;;;;;7.55;2.65;;;11.50;99.90;;;;;;7401066;19;19929;-87
2022/11/05 09:51:17;;;;;;;5.35;2.47;;;11.40;99.90;;;;;;7402561;19;20344;-86
2022/11/05 09:53:47;;;;;;;9.35;2.25;;;11.40;99.90;;;;;;7400873;19;19931;-87
2022/11/05 09:56:22;;;;;;;15.70;3.60;;;11.40;99.90;;;;;;7399721;19;19918;-87
2022/11/05 09:58:56;;;;;;;6.82;1.70;;;11.50;99.90;;;;;;7377655;19;19924;-88
2022/11/05 10:01:27;;;;;;;6.72;1.98;;;11.60;99.90;;;;;;7390986;19;19930;-88
2022/11/05 10:03:59;;;;;;;8.57;2.30;;;11.60;99.90;;;;;;7397430;19;19926;-89
2022/11/05 10:06:31;;;;;;;6.13;1.40;;;11.70;99.90;;;;;;7399284;19;20247;-88
2022/11/05 10:09:06;;;;;;;5.03;1.33;;;11.70;99.90;;;;;;7402801;19;19942;-88
2022/11/05 10:11:40;;;;;;;6.30;1.83;;;11.70;99.90;;;;;;7408002;19;19926;-88
2022/11/05 10:14:16;;;;;;;7.55;1.92;;;11.80;99.90;;;;;;7406544;19;20667;-89
2022/11/05 10:16:47;;;;;;;;;;;11.90;99.90;;;;;;7408667;19;20248;-87
2022/11/05 10:19:20;;;;;;;9.68;2.28;;;12.00;99.90;;;;;;7408664;19;19936;-88
2022/11/05 10:21:57;;;;;;;4.07;1.27;;;12.20;99.90;;;;;;7406513;19;19997;-89
2022/11/05 10:24:26;;;;;;;6.13;2.40;;;12.30;99.90;;;;;;7406128;19;19934;-89
2022/11/05 10:26:57;;;;;;;5.20;2.00;;;12.30;99.90;;;;;;7407469;19;20351;-88
2022/11/05 10:29:31;;;;;;;5.10;1.60;;;12.40;99.90;;;;;;7409621;19;19914;-89
2022/11/05 10:32:04;;;;;;;7.90;1.80;;;12.50;99.90;;;;;;7406982;19;20284;-87
2022/11/05 10:34:37;;;;;;;3.13;1.10;;;12.50;99.90;;;;;;7403264;19;19926;-88
2022/11/05 10:37:09;;;;;;;3.55;2.33;;;12.70;99.90;;;;;;7403646;19;19925;-88
2022/11/05 10:39:39;;;;;;;4.70;2.00;;;12.70;99.90;;;;;;7403717;19;19933;-88
2022/11/05 10:42:30;;;;;;;3.72;0.77;;;12.80;99.90;;;;;;7407369;19;19922;-87
2022/11/05 10:45:07;;;;;;;5.50;1.88;;;12.80;99.90;;;;;;7405201;19;19929;-83
2022/11/05 10:47:49;;;;;;;5.35;1.65;;;12.80;99.90;;;;;;7396245;19;19922;-90
2022/11/05 10:50:19;;;;;;;;;;;12.70;99.90;;;;;;7410075;19;19941;-91
2022/11/05 10:52:58;;;;;;;3.75;1.50;;;12.80;99.90;;;;;;7399273;19;19915;-92
2022/11/05 10:55:30;;;;;;;4.95;1.63;;;12.80;99.90;;;;;;7402410;19;20294;-93
2022/11/05 10:58:19;;;;;;;6.18;1.90;;;13.10;99.90;;;;;;7405852;19;19946;-91
2022/11/05 11:01:05;;;;;;;7.25;1.92;;;13.20;99.90;;;;;;7406535;19;19922;-92
2022/11/05 11:03:42;;;;;;;13.55;3.47;;;13.20;99.90;;;;;;7409908;19;19933;-91
2022/11/05 11:06:26;;;;;;;1269.25;134.15;;;13.30;99.90;;;;;;7409840;19;20336;-94
2022/11/05 11:08:59;;;;;;;1804.82;240.00;;;13.30;99.90;;;;;;7408381;19;19922;-90
2022/11/05 11:11:32;;;;;;;8.82;1.98;;;13.50;99.90;;;;;;7410238;19;20314;-92
2022/11/05 11:14:07;;;;;;;7.13;1.77;;;13.60;99.90;;;;;;7408841;19;19914;-91
2022/11/05 11:16:38;;;;;;;3.65;1.30;;;13.70;99.90;;;;;;7405404;19;19939;-91
2022/11/05 11:19:26;;;;;;;4.88;0.90;;;13.50;99.90;;;;;;7408752;19;19919;-91
2022/11/05 11:22:15;;;;;;;4.85;0.90;;;13.70;99.90;;;;;;7405959;19;19911;-91
2022/11/05 11:24:48;;;;;;;2.92;0.70;;;13.60;99.90;;;;;;7408826;19;19926;-92
2022/11/05 11:27:22;;;;;;;3.67;1.30;;;13.70;99.90;;;;;;7406968;19;19914;-91
2022/11/05 11:29:56;;;;;;;3.28;0.80;;;13.70;99.90;;;;;;7410089;19;19929;-90
2022/11/05 11:32:29;;;;;;;6.97;0.50;;;13.80;99.90;;;;;;7405665;19;19982;-90
2022/11/05 11:34:59;;;;;;;4.05;1.38;;;13.70;99.90;;;;;;7408579;19;19914;-95
2022/11/05 11:37:32;;;;;;;3.85;1.33;;;13.80;99.90;;;;;;7410488;19;19929;-93
2022/11/05 11:40:07;;;;;;;3.28;1.00;;;13.80;99.90;;;;;;7411149;19;19922;-93
2022/11/05 11:42:40;;;;;;;2.55;0.63;;;14.00;99.90;;;;;;7407691;19;19918;-95
2022/11/05 11:45:19;;;;;;;4.28;0.93;;;14.00;99.90;;;;;;7408450;19;19918;-91
2022/11/05 11:47:50;;;;;;;3.47;0.43;;;13.90;99.90;;;;;;7405850;19;20269;-94
2022/11/05 11:50:40;;;;;;;3.22;1.02;;;14.00;99.90;;;;;;7408206;19;19914;-92
2022/11/05 11:53:35;;;;;;;3.28;0.35;;;14.00;99.90;;;;;;7406166;19;19922;-90
2022/11/05 11:56:17;;;;;;;2.25;0.50;;;14.00;99.90;;;;;;7405565;19;19941;-90
2022/11/05 11:58:49;;;;;;;3.42;0.38;;;13.90;99.90;;;;;;7407534;19;19918;-91
2022/11/05 12:01:50;;;;;;;3.53;0.57;;;13.90;99.90;;;;;;7407802;19;19929;-92
2022/11/05 12:05:10;;;;;;;4.13;1.65;;;13.90;99.90;;;;;;7406870;19;19914;-93
2022/11/05 12:07:51;;;;;;;5.28;0.73;;;13.90;99.90;;;;;;7404401;19;19910;-91
2022/11/05 12:10:48;;;;;;;3.30;0.70;;;13.90;99.90;;;;;;7408234;19;20336;-92
2022/11/05 12:14:01;;;;;;;4.00;0.77;;;13.90;99.90;;;;;;7395567;19;19919;-90
2022/11/05 12:16:53;;;;;;;5.55;1.40;;;14.00;99.90;;;;;;7397685;19;19925;-90
2022/11/05 12:19:33;;;;;;;3.55;1.35;;;14.00;99.90;;;;;;7391399;19;19930;-90
2022/11/05 12:22:09;;;;;;;3.88;1.42;;;14.10;99.90;;;;;;7401067;19;20336;-86
2022/11/05 12:24:59;;;;;;;4.05;1.50;;;14.10;99.90;;;;;;7403590;19;19933;-88
2022/11/05 12:27:48;;;;;;;2.95;0.73;;;14.10;99.90;;;;;;7400864;19;19943;-87
2022/11/05 12:30:21;;;;;;;7.18;1.48;;;14.00;99.90;;;;;;7402177;19;19920;-86
2022/11/05 12:33:12;;;;;;;3.15;0.85;;;13.90;99.90;;;;;;7402560;19;19951;-84
2022/11/05 12:35:56;;;;;;;4.65;1.77;;;13.80;99.90;;;;;;7403826;19;19927;-84
2022/11/05 12:38:44;;;;;;;3.85;1.27;;;13.70;99.90;;;;;;7403283;19;19945;-84
2022/11/05 12:41:25;;;;;;;3.83;1.27;;;13.60;99.90;;;;;;7404680;19;19942;-86
2022/11/05 12:44:10;;;;;;;2.70;1.13;;;13.60;99.90;;;;;;7403660;19;19930;-85
2022/11/05 12:46:48;;;;;;;4.82;1.25;;;13.40;99.90;;;;;;7399967;19;20422;-84
2022/11/05 12:49:48;;;;;;;2.70;0.70;;;13.40;99.90;;;;;;7396584;19;20046;-84
2022/11/05 12:52:34;;;;;;;4.57;0.45;;;13.40;99.90;;;;;;7395601;19;19918;-83
2022/11/05 12:55:08;;;;;;;3.42;0.80;;;13.50;99.90;;;;;;7400136;19;20279;-82
2022/11/05 12:57:41;;;;;;;4.47;1.00;;;13.40;99.90;;;;;;7395295;19;19939;-81
2022/11/05 13:00:19;;;;;;;7.43;1.48;;;13.40;99.90;;;;;;7394108;19;19936;-82
2022/11/05 13:02:57;;;;;;;8.63;1.50;;;13.40;99.90;;;;;;7401642;19;19966;-83
2022/11/05 13:05:36;;;;;;;7.25;1.00;;;13.40;99.90;;;;;;7396688;19;19918;-83
2022/11/05 13:08:10;;;;;;;4.75;1.00;;;13.30;99.90;;;;;;7394921;19;19946;-84
2022/11/05 13:10:45;;;;;;;3.85;1.40;;;13.20;99.90;;;;;;7402583;19;19950;-87
2022/11/05 13:13:19;;;;;;;3.58;0.40;;;13.30;99.90;;;;;;7399140;19;19923;-85
2022/11/05 13:15:53;;;;;;;15.13;1.58;;;13.40;99.90;;;;;;7401792;19;19962;-84
2022/11/05 13:18:29;;;;;;;7.85;2.50;;;13.40;99.90;;;;;;7401971;19;19919;-84
2022/11/05 13:21:00;;;;;;;4.78;0.95;;;13.40;99.90;;;;;;7400416;19;19935;-84
2022/11/05 13:23:36;;;;;;;7.35;1.55;;;13.40;99.90;;;;;;7400024;19;19986;-86
2022/11/05 13:26:13;;;;;;;2.83;0.55;;;13.40;99.90;;;;;;7398925;19;20376;-86
2022/11/05 13:28:49;;;;;;;5.97;1.55;;;13.50;99.90;;;;;;7403579;19;19918;-88
2022/11/05 13:31:22;;;;;;;4.18;0.50;;;13.40;99.90;;;;;;7400378;19;20360;-87
2022/11/05 13:33:55;;;;;;;4.30;0.50;;;13.30;99.90;;;;;;7402498;19;19922;-86
2022/11/05 13:39:23;;;;;;;4.22;1.17;;;13.10;99.90;;;;;;7396241;19;19933;-92
2022/11/05 13:42:41;;;;;;;4.60;0.90;;;13.00;99.90;;;;;;7400393;19;19928;-91
2022/11/05 13:45:42;;;;;;;7.55;0.85;;;13.00;99.90;;;;;;7405244;19;19922;-86
2022/11/05 13:48:36;;;;;;;2.85;0.77;;;12.90;99.90;;;;;;7402984;19;20306;-92
2022/11/05 13:51:45;;;;;;;3.33;1.20;;;12.80;99.90;;;;;;7401057;19;19932;-96
2022/11/05 13:54:52;;;;;;;3.63;0.60;;;12.70;99.90;;;;;;7403889;19;19922;-87
2022/11/05 13:57:49;;;;;;;6.10;1.00;;;12.70;99.90;;;;;;7408172;19;19923;-89
2022/11/05 14:00:23;;;;;;;4.57;1.85;;;12.50;99.90;;;;;;7407454;19;19933;-90
2022/11/05 14:02:56;;;;;;;3.60;1.30;;;12.50;99.90;;;;;;7402622;19;19941;-86
2022/11/05 14:05:31;;;;;;;4.10;1.45;;;12.50;99.90;;;;;;7402955;19;19985;-89
2022/11/05 14:08:10;;;;;;;5.18;1.15;;;12.40;99.90;;;;;;7398319;19;20086;-86
2022/11/05 14:10:43;;;;;;;4.43;1.15;;;12.40;99.90;;;;;;7389682;19;20022;-83
2022/11/05 14:13:26;;;;;;;11.55;1.90;;;12.30;99.90;;;;;;7397250;19;19926;-84